Terminal Aerodrome Forecast
Issued by NWS Louisville, KY

Home | Current Version | Previous Version | Text Only | Print | Product List | Glossary Off
Versions: 1 2 3 4 5 6 7 8 9 10 11 12 13 14 15 16 17 18

721
FTUS43 KLMK 050738 AAA
TAFBWG
TAF AMD
KBWG 050738Z 0508/0606 VRB04KT P6SM OVC012
      TEMPO 0508/0512 BKN008
     FM051400 06005KT P6SM OVC012
     FM051700 09006KT P6SM BKN200
     FM060300 09004KT P6SM OVC015=

USA.gov is the U.S. government's official web portal to all federal, state and local government web resources and services.